TAF KPHL
AMD KPHL 090903Z 0909/1012 31008KT P6SM FEW045 FM091200 31007KT P6SM SCT250 FM091800 VRB04KT P6SM BKN250 FM100000 16005KT P6SM BKN120 FM100800 17006KT P6SM BKN070 BKN200=
METAR KPHL
KPHL 090954Z 26005KT 10SM CLR 01/M07 A3017 RMK AO2 SLP214 T00061072 ?
KPHL 090854Z 30008KT 10SM SCT040 02/M07 A3013 RMK AO2 SLP202 T00171072 51027 ?
KPHL 090754Z 31008KT 10SM SCT040 02/M07 A3010 RMK AO2 SLP193 T00171072 ?
KPHL 090654Z 32014KT 10SM FEW038 02/M07 A3009 RMK AO2 SLP188 T00221072
KPHL 090554Z 30012KT 10SM SCT044 03/M07 A3005 RMK AO2 SLP175 T00281072 10050 20028 51021
WC KPHL
WS KPHL
WV KPHL